Terminal Aerodrome Forecast
Issued by NWS

Home | Current Version | Previous Version | Text Only | Print | Product List | Glossary On
Versions: 1 2 3 4 5 6 7 8 9 10 11 12 13
000
FTUS42 TJSJ 301739
TAFJBQ
TAF
TJBQ 301739Z 3018/3118 08017KT P6SM VCTS FEW025CB BKN050
      TEMPO 3019/3022 VRB18G24KT 5SM SHRA BKN025
     FM302300 09006KT P6SM SCT025 SCT070=

USA.gov is the U.S. government's official web portal to all federal, state and local government web resources and services.